CDT,Max TemperatureF,Mean TemperatureF,Min TemperatureF,Max Dew PointF,MeanDew PointF,Min DewpointF,Max Humidity, Mean Humidity, Min Humidity, Max Sea Level PressureIn, Mean Sea Level PressureIn, Min Sea Level PressureIn, Max VisibilityMiles, Mean VisibilityMiles, Min VisibilityMiles, Max Wind SpeedMPH, Mean Wind SpeedMPH, Max Gust SpeedMPH,PrecipitationIn, CloudCover, Events, WindDirDegrees
2014-3-1,24,16,8,21,10,1,92,79,63,30.42,30.27,30.04,10,6,1,18,13,,0.00,6,,359
2014-3-2,6,-2,-9,1,-8,-17,79,63,52,30.50,30.45,30.38,10,10,10,20,14,21,0.00,3,,342
2014-3-3,8,-4,-16,7,-14,-29,100,53,18,30.55,30.48,30.36,10,10,10,12,5,,0.00,1,,339
2014-3-4,24,17,10,12,2,-24,79,54,20,30.34,30.24,30.17,10,10,10,13,7,,0.00,4,,121
2014-3-5,23,18,12,16,13,7,93,79,68,30.44,30.37,30.25,10,9,1,21,14,20,0.00,6,,72
2014-3-6,28,17,6,18,10,1,92,77,64,30.42,30.25,30.05,10,10,9,14,9,,0.00,0,,113
2014-3-7,41,28,15,30,24,12,93,79,61,30.05,29.96,29.88,10,6,2,13,9,,0.00,1,,215
2014-3-8,33,27,21,30,26,18,93,82,74,30.30,30.21,30.04,10,7,2,14,9,,0.00,3,,351
2014-3-9,41,29,17,32,24,12,93,78,65,30.29,30.07,29.80,10,9,3,18,10,23,0.00,0,,225
2014-3-10,51,43,35,45,36,30,93,78,70,29.82,29.74,29.70,10,10,5,14,10,,0.00,1,,256
2014-3-11,44,38,33,36,33,30,93,83,66,29.82,29.72,29.66,10,9,3,28,8,30,0.00,2,,39
2014-3-12,35,30,23,32,24,19,87,76,64,30.13,29.98,29.80,10,10,3,21,11,26,0.00,6,,344
2014-3-13,46,32,19,36,26,16,93,76,61,30.13,30.00,29.81,10,10,10,16,8,24,0.00,1,,206
2014-3-14,48,40,32,37,32,28,87,70,61,29.94,29.77,29.63,10,10,10,29,14,38,0.00,1,,263
2014-3-15,41,34,28,30,26,23,93,75,53,30.25,30.10,29.94,10,10,8,18,9,20,0.00,4,,27
2014-3-16,30,24,17,28,14,9,93,67,47,30.39,30.29,30.18,10,10,4,26,18,32,0.00,4,,63
2014-3-17,39,26,12,25,15,9,92,64,38,30.17,29.91,29.73,10,10,10,17,9,22,0.00,0,,139
2014-3-18,50,40,30,37,31,23,81,72,58,29.80,29.72,29.60,10,10,5,28,14,31,0.02,1,,135
2014-3-19,41,36,30,37,32,25,93,84,70,30.07,29.82,29.56,10,5,0,26,12,34,0.07,8,,307
2014-3-20,46,36,26,30,26,23,93,70,43,30.10,30.04,29.98,10,10,5,9,4,,0.00,3,,27
2014-3-21,59,42,26,39,31,23,86,68,45,30.01,29.88,29.72,10,10,6,25,11,34,0.00,3,,98
2014-3-22,39,32,24,28,20,10,81,61,35,30.41,30.23,30.00,10,10,10,22,15,24,0.00,4,,317
2014-3-23,32,23,14,12,8,3,79,55,34,30.52,30.45,30.39,10,10,10,17,11,21,0.00,0,,334
2014-3-24,37,26,15,25,15,9,93,65,38,30.42,30.29,30.12,10,10,0,28,5,18,0.00,4,,283
2014-3-25,26,18,10,21,10,3,93,66,46,30.28,30.20,30.11,10,10,9,24,12,32,0.00,1,,306
2014-3-26,42,28,14,21,15,9,86,57,34,30.31,30.16,29.92,10,10,10,26,8,30,0.00,2,,168
2014-3-27,51,43,35,46,36,21,93,80,49,29.91,29.62,29.39,10,9,3,29,18,39,0.06,7,Thunderstorm,176
2014-3-28,44,40,35,41,31,28,93,79,65,30.19,29.97,29.43,10,9,3,25,13,31,0.05,8,,333
2014-3-29,48,40,30,30,27,21,87,66,37,30.27,30.23,30.18,10,8,2,15,6,18,0.00,3,,39
2014-3-30,62,44,26,37,31,21,86,61,32,30.27,30.13,29.97,10,10,5,20,11,26,0.00,0,,159
2014-3-31,66,54,42,45,38,34,81,57,35,30.00,29.81,29.62,10,10,5,37,16,45,0.00,1,,169